sensor_id;sensor_type;location;lat;lon;timestamp;pressure;altitude;pressure_sealevel;temperature;humidity
31595;BME280;18200;48.726;8.892;2023-05-25T00:03:46;97137.25;;;23.41;30.60
31595;BME280;18200;48.726;8.892;2023-05-25T00:07:48;97136.03;;;23.26;30.23
31595;BME280;18200;48.726;8.892;2023-05-25T00:11:48;97136.00;;;22.61;31.67
31595;BME280;18200;48.726;8.892;2023-05-25T00:15:49;97137.19;;;22.01;32.79
31595;BME280;18200;48.726;8.892;2023-05-25T00:19:49;97134.97;;;22.71;31.82
31595;BME280;18200;48.726;8.892;2023-05-25T00:23:50;97130.75;;;23.19;31.23
31595;BME280;18200;48.726;8.892;2023-05-25T00:36:22;97126.69;;;23.55;30.04
31595;BME280;18200;48.726;8.892;2023-05-25T02:41:42;97091.59;;;22.14;33.35
31595;BME280;18200;48.726;8.892;2023-05-25T02:45:43;97091.75;;;22.43;33.19
31595;BME280;18200;48.726;8.892;2023-05-25T02:49:44;97093.25;;;22.64;32.40
31595;BME280;18200;48.726;8.892;2023-05-25T02:53:44;97096.66;;;22.32;33.23
31595;BME280;18200;48.726;8.892;2023-05-25T02:57:44;97092.84;;;21.47;33.84
31595;BME280;18200;48.726;8.892;2023-05-25T03:01:52;97096.72;;;22.48;32.78
31595;BME280;18200;48.726;8.892;2023-05-25T03:05:52;97105.63;;;22.52;32.79
31595;BME280;18200;48.726;8.892;2023-05-25T03:09:53;97113.88;;;22.32;32.77
31595;BME280;18200;48.726;8.892;2023-05-25T03:13:55;97106.34;;;21.78;33.83
31595;BME280;18200;48.726;8.892;2023-05-25T03:17:56;97107.00;;;21.42;33.96
31595;BME280;18200;48.726;8.892;2023-05-25T03:22:02;97111.66;;;20.42;35.69
31595;BME280;18200;48.726;8.892;2023-05-25T03:26:03;97123.41;;;21.42;34.38
31595;BME280;18200;48.726;8.892;2023-05-25T03:30:04;97122.47;;;21.29;33.91
31595;BME280;18200;48.726;8.892;2023-05-25T03:34:05;97127.38;;;20.88;34.90
31595;BME280;18200;48.726;8.892;2023-05-25T03:38:07;97126.63;;;21.14;34.94
31595;BME280;18200;48.726;8.892;2023-05-25T03:42:08;97127.38;;;21.84;33.92
31595;BME280;18200;48.726;8.892;2023-05-25T03:46:10;97123.09;;;21.60;33.53
31595;BME280;18200;48.726;8.892;2023-05-25T03:50:10;97124.69;;;22.00;32.98
31595;BME280;18200;48.726;8.892;2023-05-25T03:54:11;97128.50;;;21.40;33.74
31595;BME280;18200;48.726;8.892;2023-05-25T03:58:11;97137.69;;;20.77;34.16
31595;BME280;18200;48.726;8.892;2023-05-25T04:02:12;97135.78;;;21.27;34.48
31595;BME280;18200;48.726;8.892;2023-05-25T04:06:12;97133.50;;;21.22;33.74
31595;BME280;18200;48.726;8.892;2023-05-25T04:10:13;97134.97;;;20.50;34.75
31595;BME280;18200;48.726;8.892;2023-05-25T04:14:13;97141.00;;;21.41;33.65
31595;BME280;18200;48.726;8.892;2023-05-25T04:18:15;97137.63;;;21.77;33.49
31595;BME280;18200;48.726;8.892;2023-05-25T04:22:15;97134.25;;;21.92;32.87
31595;BME280;18200;48.726;8.892;2023-05-25T04:26:17;97147.28;;;21.61;33.67
31595;BME280;18200;48.726;8.892;2023-05-25T04:30:19;97145.88;;;21.30;34.19
31595;BME280;18200;48.726;8.892;2023-05-25T04:34:31;97144.31;;;20.49;35.34
31595;BME280;18200;48.726;8.892;2023-05-25T04:38:37;97142.84;;;19.74;37.46
31595;BME280;18200;48.726;8.892;2023-05-25T04:42:39;97140.69;;;19.07;38.83
31595;BME280;18200;48.726;8.892;2023-05-25T04:46:40;97144.56;;;19.57;37.86
31595;BME280;18200;48.726;8.892;2023-05-25T04:50:47;97145.88;;;20.20;36.66
31595;BME280;18200;48.726;8.892;2023-05-25T04:54:48;97141.22;;;20.47;36.22
31595;BME280;18200;48.726;8.892;2023-05-25T04:58:50;97140.59;;;20.02;36.90
31595;BME280;18200;48.726;8.892;2023-05-25T05:02:52;97136.75;;;20.87;35.60
31595;BME280;18200;48.726;8.892;2023-05-25T05:06:54;97149.44;;;20.74;36.04
31595;BME280;18200;48.726;8.892;2023-05-25T05:10:57;97150.97;;;21.28;35.12
31595;BME280;18200;48.726;8.892;2023-05-25T05:14:58;97151.91;;;20.65;36.14
31595;BME280;18200;48.726;8.892;2023-05-25T05:19:02;97149.44;;;20.74;35.99
31595;BME280;18200;48.726;8.892;2023-05-25T05:23:03;97154.94;;;21.47;35.15
31595;BME280;18200;48.726;8.892;2023-05-25T05:27:04;97165.00;;;22.00;33.82
31595;BME280;18200;48.726;8.892;2023-05-25T05:31:13;97170.81;;;22.41;33.27
31595;BME280;18200;48.726;8.892;2023-05-25T05:35:16;97180.84;;;22.28;33.75
31595;BME280;18200;48.726;8.892;2023-05-25T05:39:20;97182.91;;;22.63;33.41
31595;BME280;18200;48.726;8.892;2023-05-25T05:43:21;97190.56;;;23.72;32.04
31595;BME280;18200;48.726;8.892;2023-05-25T05:47:21;97190.00;;;22.96;32.88
31595;BME280;18200;48.726;8.892;2023-05-25T05:51:21;97198.75;;;23.24;32.72
31595;BME280;18200;48.726;8.892;2023-05-25T05:55:23;97202.00;;;23.83;32.05
31595;BME280;18200;48.726;8.892;2023-05-25T05:59:26;97207.38;;;24.47;31.01
31595;BME280;18200;48.726;8.892;2023-05-25T06:03:26;97213.53;;;23.46;31.66
31595;BME280;18200;48.726;8.892;2023-05-25T06:07:28;97214.16;;;23.98;30.94
31595;BME280;18200;48.726;8.892;2023-05-25T06:11:30;97209.59;;;24.52;30.52
31595;BME280;18200;48.726;8.892;2023-05-25T06:15:30;97223.97;;;22.83;32.93
31595;BME280;18200;48.726;8.892;2023-05-25T06:19:33;97217.28;;;22.45;33.65
31595;BME280;18200;48.726;8.892;2023-05-25T06:23:33;97216.22;;;23.13;33.14
31595;BME280;18200;48.726;8.892;2023-05-25T06:27:35;97226.69;;;21.31;35.46
31595;BME280;18200;48.726;8.892;2023-05-25T06:31:35;97224.16;;;21.67;35.70
31595;BME280;18200;48.726;8.892;2023-05-25T06:35:36;97227.19;;;23.13;32.67
31595;BME280;18200;48.726;8.892;2023-05-25T06:39:36;97214.41;;;25.78;29.47
31595;BME280;18200;48.726;8.892;2023-05-25T06:43:37;97220.94;;;25.46;29.21
31595;BME280;18200;48.726;8.892;2023-05-25T06:48:00;97235.72;;;23.51;32.90
31595;BME280;18200;48.726;8.892;2023-05-25T06:52:00;97235.34;;;22.81;33.56
31595;BME280;18200;48.726;8.892;2023-05-25T06:56:01;97228.59;;;24.18;31.78
31595;BME280;18200;48.726;8.892;2023-05-25T07:00:01;97223.06;;;23.41;32.81
31595;BME280;18200;48.726;8.892;2023-05-25T07:04:02;97223.66;;;24.54;31.31
31595;BME280;18200;48.726;8.892;2023-05-25T07:08:02;97229.72;;;25.03;31.16
31595;BME280;18200;48.726;8.892;2023-05-25T07:12:03;97243.00;;;24.92;31.30
31595;BME280;18200;48.726;8.892;2023-05-25T07:16:06;97234.25;;;23.79;33.01
31595;BME280;18200;48.726;8.892;2023-05-25T07:20:07;97236.47;;;24.16;32.95
31595;BME280;18200;48.726;8.892;2023-05-25T07:24:08;97247.00;;;23.21;34.25
31595;BME280;18200;48.726;8.892;2023-05-25T07:28:08;97241.97;;;24.00;33.77
31595;BME280;18200;48.726;8.892;2023-05-25T07:32:08;97249.88;;;24.72;31.93
31595;BME280;18200;48.726;8.892;2023-05-25T07:36:09;97247.31;;;23.91;33.15
31595;BME280;18200;48.726;8.892;2023-05-25T07:40:09;97249.97;;;24.39;32.53
31595;BME280;18200;48.726;8.892;2023-05-25T07:44:10;97248.09;;;25.19;32.21
31595;BME280;18200;48.726;8.892;2023-05-25T07:48:10;97251.63;;;25.70;30.60
31595;BME280;18200;48.726;8.892;2023-05-25T07:52:11;97265.25;;;23.63;33.76
31595;BME280;18200;48.726;8.892;2023-05-25T07:56:11;97259.25;;;23.84;33.70
31595;BME280;18200;48.726;8.892;2023-05-25T08:00:12;97257.16;;;26.51;29.65
31595;BME280;18200;48.726;8.892;2023-05-25T08:04:15;97254.59;;;25.25;31.36
31595;BME280;18200;48.726;8.892;2023-05-25T08:08:15;97266.88;;;23.61;33.78
31595;BME280;18200;48.726;8.892;2023-05-25T08:12:15;97262.59;;;24.37;32.29
31595;BME280;18200;48.726;8.892;2023-05-25T08:16:16;97245.16;;;26.88;29.88
31595;BME280;18200;48.726;8.892;2023-05-25T08:20:17;97254.28;;;26.76;29.32
31595;BME280;18200;48.726;8.892;2023-05-25T08:24:17;97261.72;;;27.40;29.32
31595;BME280;18200;48.726;8.892;2023-05-25T08:28:20;97261.34;;;26.77;29.77
31595;BME280;18200;48.726;8.892;2023-05-25T08:32:21;97262.50;;;24.69;32.81
31595;BME280;18200;48.726;8.892;2023-05-25T08:36:21;97252.63;;;25.25;32.95
31595;BME280;18200;48.726;8.892;2023-05-25T08:40:23;97266.94;;;26.52;30.63
31595;BME280;18200;48.726;8.892;2023-05-25T08:44:26;97262.06;;;25.37;32.02
31595;BME280;18200;48.726;8.892;2023-05-25T08:48:27;97263.88;;;27.15;29.55
31595;BME280;18200;48.726;8.892;2023-05-25T08:52:31;97259.19;;;28.13;28.91
31595;BME280;18200;48.726;8.892;2023-05-25T08:56:35;97268.34;;;28.01;29.90
31595;BME280;18200;48.726;8.892;2023-05-25T09:00:41;97270.03;;;26.07;32.09
31595;BME280;18200;48.726;8.892;2023-05-25T09:04:44;97262.31;;;27.35;29.96
31595;BME280;18200;48.726;8.892;2023-05-25T09:08:44;97266.44;;;27.09;30.91
31595;BME280;18200;48.726;8.892;2023-05-25T09:12:45;97271.94;;;27.09;31.28
31595;BME280;18200;48.726;8.892;2023-05-25T09:16:47;97283.59;;;27.65;29.88
31595;BME280;18200;48.726;8.892;2023-05-25T09:20:49;97290.41;;;28.59;28.28
31595;BME280;18200;48.726;8.892;2023-05-25T09:24:50;97268.91;;;29.41;28.02
31595;BME280;18200;48.726;8.892;2023-05-25T09:28:50;97263.34;;;26.98;30.92
31595;BME280;18200;48.726;8.892;2023-05-25T09:32:51;97273.59;;;28.08;30.25
31595;BME280;18200;48.726;8.892;2023-05-25T09:36:51;97280.41;;;28.34;29.09
31595;BME280;18200;48.726;8.892;2023-05-25T09:40:52;97286.94;;;28.09;29.31
31595;BME280;18200;48.726;8.892;2023-05-25T09:44:52;97288.31;;;30.53;26.93
31595;BME280;18200;48.726;8.892;2023-05-25T09:48:53;97287.13;;;28.96;28.89
31595;BME280;18200;48.726;8.892;2023-05-25T09:52:59;97291.06;;;27.96;30.81
31595;BME280;18200;48.726;8.892;2023-05-25T09:57:01;97294.41;;;26.77;31.73
31595;BME280;18200;48.726;8.892;2023-05-25T10:01:02;97287.75;;;29.00;29.02
31595;BME280;18200;48.726;8.892;2023-05-25T10:05:04;97276.25;;;29.53;28.64
31595;BME280;18200;48.726;8.892;2023-05-25T10:09:05;97283.06;;;29.34;28.97
31595;BME280;18200;48.726;8.892;2023-05-25T10:13:07;97287.66;;;27.92;30.58
31595;BME280;18200;48.726;8.892;2023-05-25T10:17:09;97284.38;;;27.66;30.84
31595;BME280;18200;48.726;8.892;2023-05-25T10:21:12;97284.25;;;27.79;31.06
31595;BME280;18200;48.726;8.892;2023-05-25T10:29:21;97287.44;;;29.17;29.42
31595;BME280;18200;48.726;8.892;2023-05-25T10:33:24;97285.00;;;30.79;28.08
31595;BME280;18200;48.726;8.892;2023-05-25T10:37:28;97282.81;;;30.83;27.38
31595;BME280;18200;48.726;8.892;2023-05-25T10:41:29;97289.94;;;31.42;26.35
31595;BME280;18200;48.726;8.892;2023-05-25T10:45:30;97287.94;;;29.48;29.24
31595;BME280;18200;48.726;8.892;2023-05-25T10:49:32;97289.16;;;30.98;27.04
31595;BME280;18200;48.726;8.892;2023-05-25T10:53:33;97287.78;;;30.40;27.83
31595;BME280;18200;48.726;8.892;2023-05-25T10:57:33;97293.41;;;29.75;28.58
31595;BME280;18200;48.726;8.892;2023-05-25T11:01:49;97289.28;;;30.80;27.33
31595;BME280;18200;48.726;8.892;2023-05-25T11:05:49;97292.81;;;30.65;27.01
31595;BME280;18200;48.726;8.892;2023-05-25T11:09:57;97301.84;;;32.47;25.09
31595;BME280;18200;48.726;8.892;2023-05-25T11:14:00;97294.78;;;30.50;27.65
31595;BME280;18200;48.726;8.892;2023-05-25T11:18:00;97287.28;;;31.82;26.39
31595;BME280;18200;48.726;8.892;2023-05-25T11:22:14;97292.13;;;32.82;24.50
31595;BME280;18200;48.726;8.892;2023-05-25T11:26:19;97301.44;;;33.88;23.37
31595;BME280;18200;48.726;8.892;2023-05-25T11:30:26;97293.03;;;33.20;23.79
31595;BME280;18200;48.726;8.892;2023-05-25T11:34:29;97293.88;;;33.31;24.97
31595;BME280;18200;48.726;8.892;2023-05-25T11:38:31;97288.59;;;34.44;23.11
31595;BME280;18200;48.726;8.892;2023-05-25T11:42:32;97292.50;;;34.15;24.10
31595;BME280;18200;48.726;8.892;2023-05-25T11:46:33;97286.22;;;31.94;25.96
31595;BME280;18200;48.726;8.892;2023-05-25T11:50:33;97294.19;;;32.22;26.41
31595;BME280;18200;48.726;8.892;2023-05-25T11:54:34;97296.75;;;30.74;27.95
31595;BME280;18200;48.726;8.892;2023-05-25T11:58:35;97294.25;;;30.76;27.39
31595;BME280;18200;48.726;8.892;2023-05-25T12:02:39;97278.63;;;31.60;26.19
31595;BME280;18200;48.726;8.892;2023-05-25T12:06:40;97292.38;;;31.69;26.20
31595;BME280;18200;48.726;8.892;2023-05-25T12:10:50;97291.84;;;33.26;24.35
31595;BME280;18200;48.726;8.892;2023-05-25T12:14:51;97285.81;;;33.33;23.85
31595;BME280;18200;48.726;8.892;2023-05-25T12:18:52;97280.53;;;34.57;23.31
31595;BME280;18200;48.726;8.892;2023-05-25T12:22:53;97280.94;;;31.47;25.98
31595;BME280;18200;48.726;8.892;2023-05-25T12:26:53;97289.94;;;31.42;26.10
31595;BME280;18200;48.726;8.892;2023-05-25T12:30:56;97286.28;;;33.26;24.02
31595;BME280;18200;48.726;8.892;2023-05-25T12:35:09;97282.78;;;34.53;23.06
31595;BME280;18200;48.726;8.892;2023-05-25T12:39:11;97285.47;;;31.94;25.87
31595;BME280;18200;48.726;8.892;2023-05-25T12:43:13;97284.28;;;32.81;25.31
31595;BME280;18200;48.726;8.892;2023-05-25T12:47:17;97289.59;;;34.46;23.52
31595;BME280;18200;48.726;8.892;2023-05-25T12:51:22;97282.72;;;35.23;22.18
31595;BME280;18200;48.726;8.892;2023-05-25T12:59:28;97279.28;;;32.04;25.52
31595;BME280;18200;48.726;8.892;2023-05-25T13:03:29;97276.72;;;34.01;23.20
31595;BME280;18200;48.726;8.892;2023-05-25T13:07:30;97277.25;;;32.85;24.87
31595;BME280;18200;48.726;8.892;2023-05-25T13:11:31;97278.81;;;34.17;22.95
31595;BME280;18200;48.726;8.892;2023-05-25T13:15:31;97277.59;;;33.87;23.83
31595;BME280;18200;48.726;8.892;2023-05-25T13:19:32;97270.53;;;35.37;22.84
31595;BME280;18200;48.726;8.892;2023-05-25T13:23:32;97274.97;;;36.39;21.19
31595;BME280;18200;48.726;8.892;2023-05-25T13:27:32;97272.31;;;36.64;21.14
31595;BME280;18200;48.726;8.892;2023-05-25T13:31:33;97272.28;;;36.01;21.39
31595;BME280;18200;48.726;8.892;2023-05-25T13:35:33;97261.91;;;37.05;20.57
31595;BME280;18200;48.726;8.892;2023-05-25T13:39:40;97273.94;;;34.65;22.79
31595;BME280;18200;48.726;8.892;2023-05-25T13:43:41;97269.47;;;34.95;22.71
31595;BME280;18200;48.726;8.892;2023-05-25T13:47:41;97269.25;;;35.82;21.16
31595;BME280;18200;48.726;8.892;2023-05-25T13:51:42;97278.13;;;35.08;22.40
31595;BME280;18200;48.726;8.892;2023-05-25T13:59:50;97269.22;;;36.04;21.02
31595;BME280;18200;48.726;8.892;2023-05-25T14:03:50;97267.75;;;35.53;21.89
31595;BME280;18200;48.726;8.892;2023-05-25T14:07:51;97266.38;;;37.19;19.88
31595;BME280;18200;48.726;8.892;2023-05-25T14:11:52;97264.09;;;34.16;22.81
31595;BME280;18200;48.726;8.892;2023-05-25T14:15:52;97262.22;;;36.38;21.01
31595;BME280;18200;48.726;8.892;2023-05-25T14:19:53;97264.41;;;35.88;22.14
31595;BME280;18200;48.726;8.892;2023-05-25T14:23:53;97265.97;;;35.12;22.38
31595;BME280;18200;48.726;8.892;2023-05-25T14:27:54;97263.72;;;38.58;19.21
31595;BME280;18200;48.726;8.892;2023-05-25T14:31:54;97272.84;;;38.46;19.77
31595;BME280;18200;48.726;8.892;2023-05-25T14:35:55;97266.78;;;37.40;20.09
31595;BME280;18200;48.726;8.892;2023-05-25T14:39:56;97272.06;;;35.82;21.90
31595;BME280;18200;48.726;8.892;2023-05-25T14:43:56;97264.69;;;35.29;21.88
31595;BME280;18200;48.726;8.892;2023-05-25T14:47:57;97269.53;;;35.51;22.09
31595;BME280;18200;48.726;8.892;2023-05-25T14:51:58;97263.59;;;36.15;21.07
31595;BME280;18200;48.726;8.892;2023-05-25T14:55:58;97271.03;;;35.96;22.07
31595;BME280;18200;48.726;8.892;2023-05-25T14:59:58;97259.06;;;38.42;19.38
31595;BME280;18200;48.726;8.892;2023-05-25T15:03:59;97268.97;;;36.02;21.69
31595;BME280;18200;48.726;8.892;2023-05-25T15:07:59;97259.88;;;35.52;22.75
31595;BME280;18200;48.726;8.892;2023-05-25T15:11:59;97256.59;;;35.48;22.02
31595;BME280;18200;48.726;8.892;2023-05-25T15:16:01;97255.22;;;34.12;23.81
31595;BME280;18200;48.726;8.892;2023-05-25T15:20:01;97261.91;;;35.57;21.64
31595;BME280;18200;48.726;8.892;2023-05-25T15:24:02;97252.41;;;36.73;20.69
31595;BME280;18200;48.726;8.892;2023-05-25T15:28:02;97263.44;;;35.58;21.80
31595;BME280;18200;48.726;8.892;2023-05-25T15:32:03;97265.41;;;33.47;23.96
31595;BME280;18200;48.726;8.892;2023-05-25T15:36:04;97264.16;;;36.66;20.90
31595;BME280;18200;48.726;8.892;2023-05-25T15:40:05;97263.78;;;34.51;22.95
31595;BME280;18200;48.726;8.892;2023-05-25T15:44:06;97261.94;;;34.48;22.90
31595;BME280;18200;48.726;8.892;2023-05-25T15:48:07;97260.56;;;34.16;22.81
31595;BME280;18200;48.726;8.892;2023-05-25T15:52:09;97256.31;;;35.24;22.41
31595;BME280;18200;48.726;8.892;2023-05-25T15:56:10;97260.53;;;37.17;20.67
31595;BME280;18200;48.726;8.892;2023-05-25T16:00:11;97261.63;;;34.24;22.81
31595;BME280;18200;48.726;8.892;2023-05-25T16:04:11;97255.81;;;35.31;22.03
31595;BME280;18200;48.726;8.892;2023-05-25T16:08:12;97257.28;;;37.43;19.80
31595;BME280;18200;48.726;8.892;2023-05-25T16:12:13;97256.78;;;35.83;21.19
31595;BME280;18200;48.726;8.892;2023-05-25T16:16:13;97252.13;;;38.67;18.57
31595;BME280;18200;48.726;8.892;2023-05-25T16:20:23;97262.09;;;37.12;20.56
31595;BME280;18200;48.726;8.892;2023-05-25T16:24:26;97254.22;;;36.07;21.44
31595;BME280;18200;48.726;8.892;2023-05-25T16:28:26;97256.34;;;34.43;23.18
31595;BME280;18200;48.726;8.892;2023-05-25T16:32:27;97255.28;;;35.76;21.54
31595;BME280;18200;48.726;8.892;2023-05-25T16:36:28;97262.66;;;38.19;19.01
31595;BME280;18200;48.726;8.892;2023-05-25T16:40:28;97258.00;;;36.73;21.25
31595;BME280;18200;48.726;8.892;2023-05-25T16:44:30;97261.47;;;33.59;23.97
31595;BME280;18200;48.726;8.892;2023-05-25T16:48:31;97262.00;;;34.54;22.81
31595;BME280;18200;48.726;8.892;2023-05-25T16:52:31;97261.41;;;33.23;24.50
31595;BME280;18200;48.726;8.892;2023-05-25T16:56:31;97259.22;;;33.63;23.98
31595;BME280;18200;48.726;8.892;2023-05-25T17:00:33;97251.66;;;34.71;23.13
31595;BME280;18200;48.726;8.892;2023-05-25T17:04:33;97247.63;;;34.18;23.49
31595;BME280;18200;48.726;8.892;2023-05-25T17:08:33;97238.75;;;35.12;22.50
31595;BME280;18200;48.726;8.892;2023-05-25T17:12:35;97247.47;;;36.43;20.84
31595;BME280;18200;48.726;8.892;2023-05-25T17:16:35;97247.97;;;36.36;21.34
31595;BME280;18200;48.726;8.892;2023-05-25T17:20:36;97244.28;;;34.79;22.58
31595;BME280;18200;48.726;8.892;2023-05-25T17:24:36;97257.44;;;33.60;24.14
31595;BME280;18200;48.726;8.892;2023-05-25T17:28:36;97253.13;;;34.55;23.29
31595;BME280;18200;48.726;8.892;2023-05-25T17:32:37;97255.34;;;34.46;23.01
31595;BME280;18200;48.726;8.892;2023-05-25T17:36:39;97249.94;;;34.20;23.34
31595;BME280;18200;48.726;8.892;2023-05-25T17:40:41;97246.38;;;35.72;22.56
31595;BME280;18200;48.726;8.892;2023-05-25T17:44:41;97258.50;;;34.11;23.13
31595;BME280;18200;48.726;8.892;2023-05-25T17:48:42;97261.03;;;36.17;21.85
31595;BME280;18200;48.726;8.892;2023-05-25T17:52:42;97264.97;;;34.39;23.30
31595;BME280;18200;48.726;8.892;2023-05-25T17:56:43;97275.06;;;33.21;23.90
31595;BME280;18200;48.726;8.892;2023-05-25T18:00:43;97273.09;;;33.01;24.40
31595;BME280;18200;48.726;8.892;2023-05-25T18:04:44;97283.94;;;33.87;23.67
31595;BME280;18200;48.726;8.892;2023-05-25T18:08:44;97280.91;;;33.23;24.51
31595;BME280;18200;48.726;8.892;2023-05-25T18:12:44;97282.97;;;33.53;24.66
31595;BME280;18200;48.726;8.892;2023-05-25T18:16:48;97281.34;;;34.15;24.18
31595;BME280;18200;48.726;8.892;2023-05-25T18:20:48;97278.03;;;33.43;24.79
31595;BME280;18200;48.726;8.892;2023-05-25T18:24:48;97282.97;;;33.53;24.73
31595;BME280;18200;48.726;8.892;2023-05-25T18:28:49;97285.47;;;33.51;24.08
31595;BME280;18200;48.726;8.892;2023-05-25T18:32:50;97280.41;;;33.87;24.20
31595;BME280;18200;48.726;8.892;2023-05-25T18:36:50;97286.06;;;33.61;24.38
31595;BME280;18200;48.726;8.892;2023-05-25T18:40:51;97288.75;;;32.73;25.34
31595;BME280;18200;48.726;8.892;2023-05-25T18:44:51;97281.34;;;32.09;26.13
31595;BME280;18200;48.726;8.892;2023-05-25T18:48:51;97287.69;;;31.75;26.58
31595;BME280;18200;48.726;8.892;2023-05-25T18:52:52;97290.41;;;32.04;26.21
31595;BME280;18200;48.726;8.892;2023-05-25T18:56:53;97293.81;;;32.74;25.56
31595;BME280;18200;48.726;8.892;2023-05-25T19:00:53;97286.19;;;33.21;25.11
31595;BME280;18200;48.726;8.892;2023-05-25T19:04:53;97295.25;;;32.90;25.66
31595;BME280;18200;48.726;8.892;2023-05-25T19:08:54;97300.34;;;33.43;24.48
31595;BME280;18200;48.726;8.892;2023-05-25T19:12:54;97309.28;;;33.52;24.62
31595;BME280;18200;48.726;8.892;2023-05-25T19:16:55;97307.31;;;33.58;24.39
31595;BME280;18200;48.726;8.892;2023-05-25T19:20:55;97306.84;;;33.34;24.54
31595;BME280;18200;48.726;8.892;2023-05-25T19:24:57;97308.91;;;32.28;26.44
31595;BME280;18200;48.726;8.892;2023-05-25T19:28:57;97318.97;;;32.60;25.79
31595;BME280;18200;48.726;8.892;2023-05-25T19:32:58;97321.13;;;32.96;25.73
31595;BME280;18200;48.726;8.892;2023-05-25T19:36:58;97322.81;;;33.08;25.70
31595;BME280;18200;48.726;8.892;2023-05-25T19:40:59;97322.53;;;33.06;25.54
31595;BME280;18200;48.726;8.892;2023-05-25T19:44:59;97326.09;;;32.86;25.76
31595;BME280;18200;48.726;8.892;2023-05-25T19:48:59;97325.50;;;32.77;26.06
31595;BME280;18200;48.726;8.892;2023-05-25T19:53:00;97319.66;;;32.75;25.73
31595;BME280;18200;48.726;8.892;2023-05-25T19:57:00;97335.44;;;32.63;26.45
31595;BME280;18200;48.726;8.892;2023-05-25T20:01:01;97322.09;;;32.47;26.38
31595;BME280;18200;48.726;8.892;2023-05-25T20:05:02;97325.53;;;32.42;26.27
31595;BME280;18200;48.726;8.892;2023-05-25T20:09:02;97336.66;;;32.42;26.58
31595;BME280;18200;48.726;8.892;2023-05-25T20:13:04;97336.50;;;32.11;26.66
31595;BME280;18200;48.726;8.892;2023-05-25T20:17:05;97340.25;;;31.93;26.71
31595;BME280;18200;48.726;8.892;2023-05-25T20:21:05;97346.63;;;31.79;26.87
31595;BME280;18200;48.726;8.892;2023-05-25T20:25:06;97342.97;;;31.29;27.65
31595;BME280;18200;48.726;8.892;2023-05-25T20:29:06;97343.84;;;30.83;28.28
31595;BME280;18200;48.726;8.892;2023-05-25T20:33:07;97346.63;;;31.21;27.78
31595;BME280;18200;48.726;8.892;2023-05-25T20:37:07;97352.16;;;31.21;28.70
31595;BME280;18200;48.726;8.892;2023-05-25T20:41:07;97342.91;;;31.24;28.51
31595;BME280;18200;48.726;8.892;2023-05-25T20:45:08;97353.72;;;31.22;27.83
31595;BME280;18200;48.726;8.892;2023-05-25T20:49:08;97361.56;;;31.09;28.29
31595;BME280;18200;48.726;8.892;2023-05-25T20:53:08;97358.63;;;30.89;28.44
31595;BME280;18200;48.726;8.892;2023-05-25T20:57:10;97352.78;;;30.63;29.16
31595;BME280;18200;48.726;8.892;2023-05-25T21:01:10;97352.56;;;30.28;29.18
31595;BME280;18200;48.726;8.892;2023-05-25T21:05:11;97360.59;;;30.50;29.26
31595;BME280;18200;48.726;8.892;2023-05-25T21:09:11;97358.63;;;30.41;29.19
31595;BME280;18200;48.726;8.892;2023-05-25T21:13:11;97360.25;;;30.24;29.18
31595;BME280;18200;48.726;8.892;2023-05-25T21:17:12;97359.06;;;30.16;29.53
31595;BME280;18200;48.726;8.892;2023-05-25T21:21:13;97362.09;;;29.53;30.13
31595;BME280;18200;48.726;8.892;2023-05-25T21:25:15;97361.03;;;29.41;30.62
31595;BME280;18200;48.726;8.892;2023-05-25T21:29:15;97367.31;;;29.60;30.10
31595;BME280;18200;48.726;8.892;2023-05-25T21:33:16;97363.66;;;29.36;29.77
31595;BME280;18200;48.726;8.892;2023-05-25T21:37:16;97373.84;;;28.93;30.37
31595;BME280;18200;48.726;8.892;2023-05-25T21:41:16;97362.31;;;29.13;30.83
31595;BME280;18200;48.726;8.892;2023-05-25T21:45:17;97369.22;;;28.99;31.16
31595;BME280;18200;48.726;8.892;2023-05-25T21:49:17;97369.53;;;28.92;31.27
31595;BME280;18200;48.726;8.892;2023-05-25T21:53:19;97382.59;;;28.74;31.13
31595;BME280;18200;48.726;8.892;2023-05-25T21:57:19;97377.38;;;28.94;30.74
31595;BME280;18200;48.726;8.892;2023-05-25T22:01:22;97388.28;;;29.06;30.43
31595;BME280;18200;48.726;8.892;2023-05-25T22:05:22;97391.38;;;28.81;30.57
31595;BME280;18200;48.726;8.892;2023-05-25T22:09:23;97387.03;;;28.13;32.16
31595;BME280;18200;48.726;8.892;2023-05-25T22:13:23;97386.13;;;28.74;31.11
31595;BME280;18200;48.726;8.892;2023-05-25T22:17:24;97386.13;;;28.74;31.42
31595;BME280;18200;48.726;8.892;2023-05-25T22:21:24;97383.97;;;28.69;30.92
31595;BME280;18200;48.726;8.892;2023-05-25T22:25:24;97382.75;;;28.61;30.88
31595;BME280;18200;48.726;8.892;2023-05-25T22:29:25;97387.25;;;28.37;31.36
31595;BME280;18200;48.726;8.892;2023-05-25T22:33:25;97382.50;;;27.89;31.53
31595;BME280;18200;48.726;8.892;2023-05-25T22:37:25;97385.91;;;28.41;31.03
31595;BME280;18200;48.726;8.892;2023-05-25T22:41:26;97388.53;;;28.45;31.10
31595;BME280;18200;48.726;8.892;2023-05-25T22:45:26;97383.59;;;28.40;31.20
31595;BME280;18200;48.726;8.892;2023-05-25T22:49:26;97394.81;;;28.46;30.76
31595;BME280;18200;48.726;8.892;2023-05-25T22:53:27;97399.56;;;28.36;30.77
31595;BME280;18200;48.726;8.892;2023-05-25T22:57:27;97394.03;;;28.36;30.69
31595;BME280;18200;48.726;8.892;2023-05-25T23:01:27;97396.94;;;28.32;31.22
31595;BME280;18200;48.726;8.892;2023-05-25T23:05:28;97402.94;;;28.40;30.43
31595;BME280;18200;48.726;8.892;2023-05-25T23:09:28;97403.50;;;28.75;29.73
31595;BME280;18200;48.726;8.892;2023-05-25T23:13:29;97398.72;;;28.66;29.88
31595;BME280;18200;48.726;8.892;2023-05-25T23:17:29;97395.25;;;28.35;30.74
31595;BME280;18200;48.726;8.892;2023-05-25T23:21:30;97389.34;;;28.06;30.82
31595;BME280;18200;48.726;8.892;2023-05-25T23:25:32;97390.28;;;27.50;31.76
31595;BME280;18200;48.726;8.892;2023-05-25T23:29:32;97390.41;;;27.04;32.24
31595;BME280;18200;48.726;8.892;2023-05-25T23:33:33;97401.84;;;27.36;31.95
31595;BME280;18200;48.726;8.892;2023-05-25T23:37:33;97398.75;;;27.13;32.59
31595;BME280;18200;48.726;8.892;2023-05-25T23:41:34;97401.38;;;27.16;32.57